createdAt,value
2023-05-15T00:00:20.734Z,98560.19
2023-05-15T00:02:51.284Z,98560.72
2023-05-15T00:05:20.285Z,98553.97
2023-05-15T00:07:49.059Z,98554.78
2023-05-15T00:10:17.828Z,98549.94
2023-05-15T00:12:46.557Z,98551.03
2023-05-15T00:15:15.358Z,98550.47
2023-05-15T00:17:44.082Z,98547.22
2023-05-15T00:20:14.717Z,98546.38
2023-05-15T00:22:43.478Z,98540.72
2023-05-15T00:25:12.187Z,98540.09
2023-05-15T00:27:40.911Z,98537.72
2023-05-15T00:30:11.208Z,98532.09
2023-05-15T00:32:41.139Z,98533.47
2023-05-15T00:35:10.398Z,98534.25
2023-05-15T00:37:40.582Z,98532.06
2023-05-15T00:40:14.057Z,98530.31
2023-05-15T00:42:43.614Z,98528.47
2023-05-15T00:45:14.121Z,98528.75
2023-05-15T00:47:44.776Z,98520.50
2023-05-15T00:50:14.349Z,98521.44
2023-05-15T00:52:45.143Z,98519.81
2023-05-15T00:55:13.897Z,98523.53
2023-05-15T00:57:45.286Z,98518.75
2023-05-15T01:00:18.442Z,98516.56
2023-05-15T01:02:47.549Z,98514.41
2023-05-15T01:05:16.625Z,98509.03
2023-05-15T01:08:02.474Z,98506.75
2023-05-15T01:10:31.341Z,98509.25
2023-05-15T01:13:02.717Z,98505.59
2023-05-15T01:15:31.431Z,98504.84
2023-05-15T01:18:00.263Z,98504.00
2023-05-15T01:20:35.455Z,98505.88
2023-05-15T01:23:25.177Z,98499.22
2023-05-15T01:26:44.407Z,98506.91
2023-05-15T01:29:24.368Z,98499.16
2023-05-15T01:32:00.854Z,98489.81
2023-05-15T01:34:44.042Z,98500.03
2023-05-15T01:37:15.694Z,98503.28
2023-05-15T01:39:48.905Z,98492.53
2023-05-15T01:42:20.972Z,98488.22
2023-05-15T01:44:56.638Z,98487.31
2023-05-15T01:47:36.210Z,98484.53
2023-05-15T01:50:11.289Z,98486.44
2023-05-15T01:52:46.314Z,98479.50
2023-05-15T01:55:17.257Z,98480.34
2023-05-15T01:57:49.773Z,98475.25
2023-05-15T02:00:20.849Z,98478.00
2023-05-15T02:02:51.802Z,98468.38
2023-05-15T02:05:21.251Z,98468.88
2023-05-15T02:07:51.113Z,98474.22
2023-05-15T02:10:21.277Z,98463.78
2023-05-15T02:12:51.792Z,98466.22
2023-05-15T02:15:26.464Z,98455.47
2023-05-15T02:17:56.861Z,98458.72
2023-05-15T02:20:25.668Z,98457.66
2023-05-15T02:22:54.385Z,98459.81
2023-05-15T02:25:39.768Z,98446.16
2023-05-15T02:28:20.799Z,98446.94
2023-05-15T02:31:00.435Z,98444.81
2023-05-15T02:33:43.895Z,98441.31
2023-05-15T02:36:19.517Z,98442.09
2023-05-15T02:38:53.272Z,98444.50
2023-05-15T02:41:24.363Z,98440.50
2023-05-15T02:43:56.365Z,98434.59
2023-05-15T02:46:28.149Z,98442.66
2023-05-15T02:48:57.295Z,98434.56
2023-05-15T02:51:26.740Z,98434.78
2023-05-15T02:53:57.632Z,98435.25
2023-05-15T02:56:26.457Z,98434.16
2023-05-15T02:58:55.670Z,98428.56
2023-05-15T03:01:25.857Z,98422.97
2023-05-15T03:03:54.677Z,98420.28
2023-05-15T03:06:23.480Z,98415.50
2023-05-15T03:08:52.183Z,98418.44
2023-05-15T03:11:21.443Z,98418.44
2023-05-15T03:13:50.118Z,98414.16
2023-05-15T03:16:18.817Z,98409.84
2023-05-15T03:18:49.101Z,98407.38
2023-05-15T03:21:17.847Z,98406.59
2023-05-15T03:23:46.574Z,98401.19
2023-05-15T03:26:15.366Z,98396.66
2023-05-15T03:28:45.087Z,98393.44
2023-05-15T03:31:14.447Z,98393.75
2023-05-15T03:33:43.372Z,98395.34
2023-05-15T03:36:13.448Z,98385.72
2023-05-15T03:38:44.026Z,98394.31
2023-05-15T03:41:12.856Z,98379.81
2023-05-15T03:43:41.536Z,98382.50
2023-05-15T03:46:10.291Z,98388.44
2023-05-15T03:48:42.716Z,98383.06
2023-05-15T03:51:15.257Z,98379.28
2023-05-15T03:53:49.373Z,98373.59
2023-05-15T03:56:20.091Z,98379.25
2023-05-15T03:59:32.273Z,98380.06
2023-05-15T04:02:16.714Z,98385.75
2023-05-15T04:04:45.843Z,98390.34
2023-05-15T04:07:31.484Z,98397.59
2023-05-15T04:12:42.584Z,98388.44
2023-05-15T04:15:20.217Z,98388.97
2023-05-15T04:17:54.528Z,98389.75
2023-05-15T04:20:25.978Z,98389.25
2023-05-15T04:22:58.845Z,98382.53
2023-05-15T04:25:30.966Z,98389.81
2023-05-15T04:28:00.027Z,98386.03
2023-05-15T04:30:28.995Z,98386.31
2023-05-15T04:33:35.005Z,98380.44
2023-05-15T04:36:05.364Z,98383.44
2023-05-15T04:38:37.539Z,98382.38
2023-05-15T04:41:06.273Z,98382.09
2023-05-15T04:43:38.810Z,98376.19
2023-05-15T04:46:10.872Z,98382.13
2023-05-15T04:48:39.930Z,98375.13
2023-05-15T04:51:16.326Z,98370.31
2023-05-15T04:53:46.473Z,98377.03
2023-05-15T04:56:15.153Z,98374.63
2023-05-15T04:58:44.090Z,98375.72
2023-05-15T05:01:23.638Z,98372.75
2023-05-15T05:03:53.549Z,98370.59
2023-05-15T05:06:22.441Z,98374.09
2023-05-15T05:08:52.444Z,98367.13
2023-05-15T05:11:48.464Z,98365.53
2023-05-15T05:14:17.866Z,98370.34
2023-05-15T05:16:47.023Z,98368.75
2023-05-15T05:19:15.798Z,98363.09
2023-05-15T05:21:44.631Z,98357.72
2023-05-15T05:24:14.761Z,98361.81
2023-05-15T05:26:45.871Z,98354.78
2023-05-15T05:29:14.627Z,98352.91
2023-05-15T05:31:43.313Z,98348.84
2023-05-15T05:34:12.004Z,98344.56
2023-05-15T05:36:40.802Z,98341.91
2023-05-15T05:39:09.483Z,98344.59
2023-05-15T05:41:39.570Z,98335.97
2023-05-15T05:44:08.243Z,98339.22
2023-05-15T05:46:37.156Z,98330.63
2023-05-15T05:49:06.059Z,98331.97
2023-05-15T05:51:37.079Z,98328.72
2023-05-15T05:54:06.500Z,98330.06
2023-05-15T05:56:35.374Z,98324.66
2023-05-15T05:59:06.567Z,98322.53
2023-05-15T06:01:37.489Z,98320.09
2023-05-15T06:04:06.932Z,98317.91
2023-05-15T06:06:35.808Z,98314.94
2023-05-15T06:09:05.683Z,98311.19
2023-05-15T06:11:34.915Z,98307.41
2023-05-15T06:14:05.047Z,98307.94
2023-05-15T06:16:33.839Z,98307.38
2023-05-15T06:19:02.764Z,98299.81
2023-05-15T06:21:31.579Z,98305.75
2023-05-15T06:24:00.443Z,98308.94
2023-05-15T06:26:29.216Z,98299.75
2023-05-15T06:28:57.901Z,98294.88
2023-05-15T06:31:28.093Z,98294.88
2023-05-15T06:33:56.951Z,98299.19
2023-05-15T06:36:25.664Z,98298.09
2023-05-15T06:38:54.404Z,98297.84
2023-05-15T06:41:23.146Z,98296.97
2023-05-15T06:43:51.832Z,98296.19
2023-05-15T06:46:20.800Z,98291.25
2023-05-15T06:48:50.916Z,98287.22
2023-05-15T06:51:19.589Z,98289.31
2023-05-15T06:53:48.532Z,98292.47
2023-05-15T06:56:17.229Z,98290.84
2023-05-15T06:58:46.056Z,98288.63
2023-05-15T07:01:14.798Z,98284.06
2023-05-15T07:03:44.161Z,98279.72
2023-05-15T07:06:14.253Z,98277.22
2023-05-15T07:08:43.172Z,98274.16
2023-05-15T07:11:11.880Z,98274.41
2023-05-15T07:13:40.599Z,98273.81
2023-05-15T07:16:09.398Z,98275.66
2023-05-15T07:18:38.251Z,98266.25
2023-05-15T07:21:07.610Z,98266.75
2023-05-15T07:23:37.746Z,98269.63
2023-05-15T07:26:08.766Z,98258.50
2023-05-15T07:28:40.852Z,98261.94
2023-05-15T07:31:09.959Z,98249.59
2023-05-15T07:33:38.853Z,98254.69
2023-05-15T07:36:08.332Z,98255.78
2023-05-15T07:38:38.476Z,98261.22
2023-05-15T07:41:07.209Z,98257.34
2023-05-15T07:43:35.960Z,98257.19
2023-05-15T07:46:04.671Z,98257.34
2023-05-15T07:48:33.451Z,98258.34
2023-05-15T07:51:02.482Z,98257.41
2023-05-15T07:53:34.848Z,98251.66
2023-05-15T07:56:05.540Z,98241.41
2023-05-15T07:58:35.628Z,98246.84
2023-05-15T08:01:04.332Z,98246.72
2023-05-15T08:03:34.118Z,98245.69
2023-05-15T08:06:02.940Z,98239.16
2023-05-15T08:08:31.819Z,98236.31
2023-05-15T08:11:00.499Z,98237.09
2023-05-15T08:13:30.658Z,98234.28
2023-05-15T08:15:59.480Z,98233.44
2023-05-15T08:18:28.167Z,98231.28
2023-05-15T08:20:56.841Z,98228.25
2023-05-15T08:23:25.673Z,98232.19
2023-05-15T08:25:54.381Z,98237.81
2023-05-15T08:28:23.081Z,98237.00
2023-05-15T08:30:53.264Z,98230.00
2023-05-15T08:33:22.031Z,98226.72
2023-05-15T08:35:51.958Z,98230.50
2023-05-15T08:38:20.769Z,98236.22
2023-05-15T08:40:54.193Z,98235.41
2023-05-15T08:43:24.699Z,98232.19
2023-05-15T08:45:56.887Z,98234.16
2023-05-15T08:48:30.686Z,98231.41
2023-05-15T08:51:01.636Z,98230.25
2023-05-15T08:53:31.928Z,98236.38
2023-05-15T08:56:03.739Z,98228.91
2023-05-15T08:58:34.231Z,98233.94
2023-05-15T09:01:05.384Z,98229.94
2023-05-15T09:03:34.190Z,98227.97
2023-05-15T09:06:04.520Z,98233.44
2023-05-15T09:08:35.569Z,98227.38
2023-05-15T09:11:07.961Z,98223.78
2023-05-15T09:13:36.736Z,98221.38
2023-05-15T09:16:08.931Z,98223.88
2023-05-15T09:18:40.152Z,98221.16
2023-05-15T09:21:26.193Z,98221.09
2023-05-15T09:23:56.410Z,98218.28
2023-05-15T09:26:25.884Z,98215.94
2023-05-15T09:29:04.134Z,98213.88
2023-05-15T09:31:34.890Z,98216.72
2023-05-15T09:34:06.571Z,98214.66
2023-05-15T09:36:35.293Z,98218.66
2023-05-15T09:39:04.474Z,98212.59
2023-05-15T09:41:33.153Z,98213.38
2023-05-15T09:44:02.090Z,98214.97
2023-05-15T09:46:31.332Z,98207.59
2023-05-15T09:49:01.665Z,98204.59
2023-05-15T09:51:30.424Z,98201.22
2023-05-15T09:53:59.657Z,98209.03
2023-05-15T09:56:28.511Z,98204.09
2023-05-15T09:58:58.879Z,98204.03
2023-05-15T10:01:28.627Z,98201.81
2023-05-15T10:04:04.145Z,98194.00
2023-05-15T10:06:37.717Z,98202.44
2023-05-15T10:09:07.347Z,98203.25
2023-05-15T10:11:38.821Z,98205.66
2023-05-15T10:14:09.384Z,98207.75
2023-05-15T10:16:40.599Z,98210.88
2023-05-15T10:19:13.408Z,98204.03
2023-05-15T10:21:43.426Z,98206.06
2023-05-15T10:24:13.709Z,98204.44
2023-05-15T10:26:44.594Z,98203.63
2023-05-15T10:29:15.301Z,98199.81
2023-05-15T10:31:44.728Z,98197.97
2023-05-15T10:34:15.530Z,98197.53
2023-05-15T10:36:45.114Z,98192.91
2023-05-15T10:39:14.620Z,98198.03
2023-05-15T10:41:46.414Z,98192.69
2023-05-15T10:44:17.960Z,98187.19
2023-05-15T10:46:47.033Z,98185.25
2023-05-15T10:49:17.938Z,98180.94
2023-05-15T10:51:46.661Z,98175.81
2023-05-15T10:54:16.623Z,98165.69
2023-05-15T10:56:45.489Z,98162.72
2023-05-15T10:59:14.233Z,98157.09
2023-05-15T11:01:43.358Z,98156.44
2023-05-15T11:04:14.706Z,98150.38
2023-05-15T11:06:47.853Z,98148.00
2023-05-15T11:09:36.717Z,98157.28
2023-05-15T11:12:15.041Z,98165.88
2023-05-15T11:15:05.718Z,98179.97
2023-05-15T11:17:38.488Z,98180.28
2023-05-15T11:20:08.457Z,98165.31
2023-05-15T11:23:13.680Z,98161.94
2023-05-15T11:25:44.821Z,98160.91
2023-05-15T11:28:24.757Z,98158.69
2023-05-15T11:30:54.924Z,98154.88
2023-05-15T11:33:25.352Z,98156.56
2023-05-15T11:36:01.232Z,98159.44
2023-05-15T11:38:30.031Z,98157.44
2023-05-15T11:41:03.578Z,98164.63
2023-05-15T11:43:34.119Z,98157.69
2023-05-15T11:46:09.391Z,98158.41
2023-05-15T11:48:43.348Z,98153.41
2023-05-15T11:51:20.371Z,98156.16
2023-05-15T11:53:51.797Z,98145.44
2023-05-15T11:56:22.881Z,98143.97
2023-05-15T11:58:52.904Z,98150.06
2023-05-15T12:01:21.936Z,98142.91
2023-05-15T12:03:54.409Z,98144.00
2023-05-15T12:06:24.872Z,98153.50
2023-05-15T12:08:55.221Z,98144.94
2023-05-15T12:11:29.018Z,98141.38
2023-05-15T12:14:01.029Z,98140.75
2023-05-15T12:16:30.244Z,98139.41
2023-05-15T12:19:01.338Z,98138.84
2023-05-15T12:21:30.226Z,98134.41
2023-05-15T12:24:07.699Z,98135.59
2023-05-15T12:26:37.339Z,98122.09
2023-05-15T12:29:07.101Z,98126.97
2023-05-15T12:31:37.454Z,98126.78
2023-05-15T12:34:10.938Z,98128.53
2023-05-15T12:36:42.905Z,98125.63
2023-05-15T12:39:12.972Z,98121.69
2023-05-15T12:41:41.951Z,98118.16
2023-05-15T12:44:18.954Z,98112.72
2023-05-15T12:46:48.272Z,98113.84
2023-05-15T12:49:24.947Z,98119.97
2023-05-15T12:51:54.004Z,98118.19
2023-05-15T12:54:25.407Z,98109.25
2023-05-15T12:56:57.007Z,98111.88
2023-05-15T12:59:26.476Z,98108.03
2023-05-15T13:01:55.332Z,98112.00
2023-05-15T13:04:25.573Z,98116.31
2023-05-15T13:06:54.386Z,98101.13
2023-05-15T13:09:24.052Z,98093.56
2023-05-15T13:11:52.786Z,98094.03
2023-05-15T13:14:23.496Z,98080.88
2023-05-15T13:16:52.911Z,98086.56
2023-05-15T13:19:21.695Z,98086.56
2023-05-15T13:21:54.314Z,98077.97
2023-05-15T13:24:23.328Z,98079.31
2023-05-15T13:26:52.660Z,98076.13
2023-05-15T13:29:21.379Z,98068.13
2023-05-15T13:31:50.281Z,98057.84
2023-05-15T13:34:19.085Z,98048.06
2023-05-15T13:36:47.921Z,98056.59
2023-05-15T13:39:19.379Z,98051.38
2023-05-15T13:41:48.620Z,98048.66
2023-05-15T13:47:17.585Z,98055.03
2023-05-15T13:49:47.538Z,98040.91
2023-05-15T13:52:17.350Z,98044.78
2023-05-15T13:54:49.197Z,98047.78
2023-05-15T13:57:20.408Z,98044.50
2023-05-15T13:59:52.782Z,98057.09
2023-05-15T14:02:23.531Z,98050.84
2023-05-15T14:04:57.226Z,98056.03
2023-05-15T14:07:29.438Z,98055.59
2023-05-15T14:10:00.235Z,98057.94
2023-05-15T14:15:50.556Z,98052.19
2023-05-15T14:18:19.537Z,98047.47
2023-05-15T14:20:48.513Z,98042.84
2023-05-15T14:23:23.023Z,98044.09
2023-05-15T14:25:53.278Z,98041.28
2023-05-15T14:32:27.131Z,98039.09
2023-05-15T14:34:59.820Z,98030.44
2023-05-15T14:37:41.198Z,98037.75
2023-05-15T14:41:35.471Z,98039.81
2023-05-15T14:44:07.454Z,98044.53
2023-05-15T14:46:37.965Z,98030.34
2023-05-15T14:49:07.111Z,98068.34
2023-05-15T14:51:36.289Z,98073.41
2023-05-15T14:54:05.800Z,98074.41
2023-05-15T14:57:10.076Z,98074.19
2023-05-15T15:00:06.737Z,98066.00
2023-05-15T15:02:38.822Z,98059.94
2023-05-15T15:05:09.328Z,98054.63
2023-05-15T15:08:02.047Z,98048.75
2023-05-15T15:11:47.361Z,98056.84
2023-05-15T15:14:20.368Z,98058.88
2023-05-15T15:17:16.731Z,98062.31
2023-05-15T15:19:45.449Z,98063.38
2023-05-15T15:22:18.352Z,98064.06
2023-05-15T15:24:47.113Z,98074.06
2023-05-15T15:27:18.461Z,98075.19
2023-05-15T15:29:48.083Z,98063.19
2023-05-15T15:32:18.863Z,98063.84
2023-05-15T15:34:48.568Z,98064.78
2023-05-15T15:37:17.590Z,98067.69
2023-05-15T15:39:47.050Z,98074.88
2023-05-15T15:42:16.833Z,98074.56
2023-05-15T15:44:45.965Z,98079.50
2023-05-15T15:47:17.596Z,98092.94
2023-05-15T15:49:51.574Z,98104.72
2023-05-15T15:52:21.522Z,98113.19
2023-05-15T15:54:50.380Z,98116.97
2023-05-15T15:57:20.674Z,98111.19
2023-05-15T15:59:50.068Z,98113.56
2023-05-15T16:02:19.078Z,98112.13
2023-05-15T16:04:51.062Z,98120.59
2023-05-15T16:07:19.756Z,98110.81
2023-05-15T16:09:56.885Z,98117.56
2023-05-15T16:12:37.197Z,98127.00
2023-05-15T16:15:20.748Z,98122.69
2023-05-15T16:17:54.959Z,98126.81
2023-05-15T16:20:25.633Z,98125.88
2023-05-15T16:22:54.763Z,98118.34
2023-05-15T16:25:23.635Z,98112.72
2023-05-15T16:27:56.965Z,98110.66
2023-05-15T16:30:33.636Z,98109.03
2023-05-15T16:33:14.797Z,98107.75
2023-05-15T16:35:45.625Z,98120.44
2023-05-15T16:38:16.040Z,98119.13
2023-05-15T16:40:52.128Z,98122.13
2023-05-15T16:43:23.614Z,98120.06
2023-05-15T16:46:00.050Z,98135.50
2023-05-15T16:48:28.931Z,98129.72
2023-05-15T16:50:59.142Z,98141.59
2023-05-15T16:53:29.843Z,98146.91
2023-05-15T16:55:58.722Z,98142.94
2023-05-15T16:58:27.537Z,98143.41
2023-05-15T17:00:56.638Z,98135.25
2023-05-15T17:03:26.336Z,98139.56
2023-05-15T17:05:54.999Z,98149.00
2023-05-15T17:08:25.046Z,98150.84
2023-05-15T17:10:54.471Z,98160.41
2023-05-15T17:13:23.276Z,98166.22
2023-05-15T17:15:52.087Z,98158.28
2023-05-15T17:18:21.046Z,98157.34
2023-05-15T17:20:49.916Z,98161.53
2023-05-15T17:23:19.177Z,98160.44
2023-05-15T17:25:50.256Z,98162.19
2023-05-15T17:28:19.070Z,98160.31
2023-05-15T17:30:49.056Z,98162.03
2023-05-15T17:33:18.283Z,98168.31
2023-05-15T17:35:47.732Z,98164.94
2023-05-15T17:38:16.361Z,98165.38
2023-05-15T17:40:45.065Z,98173.25
2023-05-15T17:43:15.239Z,98175.00
2023-05-15T17:45:43.919Z,98180.06
2023-05-15T17:48:12.583Z,98180.06
2023-05-15T17:50:42.109Z,98184.56
2023-05-15T17:53:10.814Z,98188.81
2023-05-15T17:55:39.475Z,98181.41
2023-05-15T17:58:08.323Z,98188.06
2023-05-15T18:00:38.753Z,98195.28
2023-05-15T18:03:08.295Z,98193.34
2023-05-15T18:05:37.063Z,98209.38
2023-05-15T18:08:06.894Z,98215.78
2023-05-15T18:10:35.542Z,98206.53
2023-05-15T18:13:04.180Z,98219.72
2023-05-15T18:15:35.167Z,98222.72
2023-05-15T18:18:05.990Z,98222.63
2023-05-15T18:20:35.078Z,98222.78
2023-05-15T18:23:03.813Z,98228.72
2023-05-15T18:25:36.798Z,98224.81
2023-05-15T18:28:05.647Z,98233.53
2023-05-15T18:30:36.399Z,98233.47
2023-05-15T18:33:06.743Z,98233.91
2023-05-15T18:35:37.284Z,98234.72
2023-05-15T18:38:07.204Z,98233.53
2023-05-15T18:40:36.151Z,98240.06
2023-05-15T18:43:05.057Z,98236.75
2023-05-15T18:45:33.850Z,98243.97
2023-05-15T18:48:03.149Z,98239.22
2023-05-15T18:50:33.392Z,98241.88
2023-05-15T18:53:02.654Z,98244.88
2023-05-15T18:55:32.375Z,98250.09
2023-05-15T18:58:01.030Z,98258.56
2023-05-15T19:03:02.620Z,98253.84
2023-05-15T19:05:34.129Z,98260.09
2023-05-15T19:08:03.951Z,98263.41
2023-05-15T19:10:32.679Z,98269.72
2023-05-15T19:13:01.334Z,98269.31
2023-05-15T19:15:30.284Z,98269.75
2023-05-15T19:17:59.070Z,98271.97
2023-05-15T19:20:27.962Z,98275.19
2023-05-15T19:22:58.185Z,98276.34
2023-05-15T19:25:27.084Z,98279.16
2023-05-15T19:27:56.209Z,98285.09
2023-05-15T19:30:25.423Z,98287.66
2023-05-15T19:32:54.233Z,98287.63
2023-05-15T19:35:22.988Z,98290.41
2023-05-15T19:37:51.653Z,98297.28
2023-05-15T19:40:21.852Z,98293.75
2023-05-15T19:42:50.520Z,98294.56
2023-05-15T19:45:19.184Z,98297.75
2023-05-15T19:47:47.901Z,98298.50
2023-05-15T19:50:17.022Z,98293.72
2023-05-15T19:52:45.793Z,98300.78
2023-05-15T19:55:14.623Z,98301.94
2023-05-15T19:57:46.073Z,98300.00
2023-05-15T20:00:16.074Z,98293.31
2023-05-15T20:02:44.791Z,98302.06
2023-05-15T20:05:13.494Z,98299.38
2023-05-15T20:07:43.202Z,98301.00
2023-05-15T20:10:12.123Z,98301.03
2023-05-15T20:12:40.800Z,98304.50
2023-05-15T20:15:13.337Z,98306.44
2023-05-15T20:17:42.230Z,98306.16
2023-05-15T20:20:12.376Z,98306.44
2023-05-15T20:22:43.606Z,98303.19
2023-05-15T20:25:12.671Z,98309.09
2023-05-15T20:27:41.299Z,98306.47
2023-05-15T20:30:13.042Z,98317.84
2023-05-15T20:32:41.829Z,98308.59
2023-05-15T20:35:12.279Z,98314.22
2023-05-15T20:37:41.059Z,98326.13
2023-05-15T20:40:12.862Z,98316.59
2023-05-15T20:42:41.627Z,98329.63
2023-05-15T20:45:12.608Z,98338.19
2023-05-15T20:47:41.544Z,98328.16
2023-05-15T20:50:11.525Z,98335.44
2023-05-15T20:52:40.403Z,98338.59
2023-05-15T20:55:16.256Z,98334.81
2023-05-15T20:57:46.113Z,98336.47
2023-05-15T21:00:19.053Z,98336.41
2023-05-15T21:02:48.406Z,98331.28
2023-05-15T21:05:17.189Z,98318.59
2023-05-15T21:07:45.880Z,98313.19
2023-05-15T21:10:14.548Z,98305.06
2023-05-15T21:12:43.357Z,98312.06
2023-05-15T21:15:12.519Z,98307.78
2023-05-15T21:17:42.651Z,98317.75
2023-05-15T21:20:12.547Z,98310.53
2023-05-15T21:22:41.376Z,98309.50
2023-05-15T21:25:11.997Z,98310.16
2023-05-15T21:27:42.096Z,98311.75
2023-05-15T21:30:12.128Z,98306.69
2023-05-15T21:32:42.457Z,98319.88
2023-05-15T21:35:11.462Z,98324.19
2023-05-15T21:37:40.129Z,98328.25
2023-05-15T21:40:10.591Z,98325.00
2023-05-15T21:42:39.228Z,98322.13
2023-05-15T21:45:09.333Z,98325.94
2023-05-15T21:47:38.132Z,98317.34
2023-05-15T21:50:09.363Z,98311.47
2023-05-15T21:52:38.023Z,98319.50
2023-05-15T21:55:08.271Z,98318.69
2023-05-15T21:57:36.994Z,98327.09
2023-05-15T22:00:08.298Z,98330.03
2023-05-15T22:02:37.170Z,98336.25
2023-05-15T22:05:07.950Z,98330.88
2023-05-15T22:07:36.599Z,98336.25
2023-05-15T22:10:06.180Z,98336.28
2023-05-15T22:12:34.905Z,98335.75
2023-05-15T22:15:03.545Z,98339.00
2023-05-15T22:17:32.152Z,98340.91
2023-05-15T22:20:07.926Z,98338.50
2023-05-15T22:22:39.135Z,98343.88
2023-05-15T22:25:09.235Z,98342.00
2023-05-15T22:27:37.867Z,98349.28
2023-05-15T22:30:08.673Z,98347.41
2023-05-15T22:32:37.388Z,98352.50
2023-05-15T22:35:08.400Z,98363.28
2023-05-15T22:37:40.741Z,98354.94
2023-05-15T22:40:12.785Z,98363.31
2023-05-15T22:42:41.880Z,98363.31
2023-05-15T22:45:11.897Z,98368.19
2023-05-15T22:47:40.552Z,98369.56
2023-05-15T22:50:10.859Z,98378.44
2023-05-15T22:52:41.033Z,98376.03
2023-05-15T22:55:12.688Z,98375.75
2023-05-15T22:57:41.423Z,98374.16
2023-05-15T23:00:11.341Z,98386.53
2023-05-15T23:02:42.601Z,98385.50
2023-05-15T23:05:12.965Z,98388.72
2023-05-15T23:07:43.005Z,98381.72
2023-05-15T23:10:12.293Z,98379.81
2023-05-15T23:12:41.434Z,98383.88
2023-05-15T23:15:11.466Z,98386.00
2023-05-15T23:17:41.547Z,98384.41
2023-05-15T23:20:12.854Z,98388.19
2023-05-15T23:22:43.009Z,98391.16
2023-05-15T23:25:12.060Z,98381.72
2023-05-15T23:27:40.798Z,98376.34
2023-05-15T23:30:11.035Z,98383.06
2023-05-15T23:32:39.693Z,98382.53
2023-05-15T23:35:09.188Z,98387.66
2023-05-15T23:37:38.007Z,98389.53
2023-05-15T23:40:09.847Z,98391.41
2023-05-15T23:42:38.485Z,98397.06
2023-05-15T23:45:09.137Z,98397.88
2023-05-15T23:47:37.790Z,98404.88
2023-05-15T23:50:08.734Z,98407.03
2023-05-15T23:52:37.388Z,98404.84
2023-05-15T23:55:08.811Z,98389.78
2023-05-15T23:57:37.508Z,98393.56
